Time;durP1;ratioP1;P1;durP2;ratioP2;P2;SDS_P1;SDS_P2;PMS_P1;PMS_P2;Temp;Humidity;BMP_temperature;BMP_pressure;BME280_temperature;BME280_humidity;BME280_pressure;Samples;Min_cycle;Max_cycle;Signal;HPM_P1;HPM_P2
2021/09/29 00:01:56;;;;;;;10.00;1.70;;;;;;;;;;5046764;28;20473;-84
2021/09/29 00:04:23;;;;;;;10.97;1.73;;;;;;;;;;5054099;28;20458;-84
2021/09/29 00:06:52;;;;;;;10.50;1.67;;;;;;;;;;5059783;28;20825;-81
2021/09/29 00:09:19;;;;;;;9.93;2.17;;;;;;;;;;5062566;28;20455;-84
2021/09/29 00:11:46;;;;;;;11.47;1.90;;;;;;;;;;5047277;28;20484;-85
2021/09/29 00:14:14;;;;;;;9.37;1.57;;;;;;;;;;5052586;28;20451;-83
2021/09/29 00:16:41;;;;;;;11.70;2.07;;;;;;;;;;5051651;28;20457;-84
2021/09/29 00:19:08;;;;;;;10.53;1.63;;;;;;;;;;5067471;28;20498;-83
2021/09/29 00:21:35;;;;;;;10.50;1.80;;;;;;;;;;5056219;28;20488;-83
2021/09/29 00:24:04;;;;;;;10.07;1.47;;;;;;;;;;5053731;28;20449;-83
2021/09/29 00:26:31;;;;;;;9.13;1.50;;;;;;;;;;5061629;28;20467;-83
2021/09/29 00:28:58;;;;;;;11.03;2.00;;;;;;;;;;5047602;28;20448;-85
2021/09/29 00:31:34;;;;;;;14.80;1.93;;;;;;;;;;5057639;28;20820;-84
2021/09/29 00:34:07;;;;;;;11.90;1.53;;;;;;;;;;5066020;28;20485;-85
2021/09/29 00:36:34;;;;;;;11.00;1.70;;;;;;;;;;5055065;28;20452;-84
2021/09/29 00:39:02;;;;;;;12.03;2.00;;;;;;;;;;5056097;28;20556;-84
2021/09/29 00:41:30;;;;;;;10.43;1.53;;;;;;;;;;5058854;28;20478;-85
2021/09/29 00:43:57;;;;;;;10.13;1.60;;;;;;;;;;5044289;28;20453;-86
2021/09/29 00:46:24;;;;;;;10.80;1.77;;;;;;;;;;5042712;28;20453;-85
2021/09/29 00:48:51;;;;;;;13.60;1.97;;;;;;;;;;5043312;28;20816;-85
2021/09/29 00:51:19;;;;;;;10.10;1.60;;;;;;;;;;5043096;28;20455;-85
2021/09/29 00:53:48;;;;;;;10.40;2.03;;;;;;;;;;5043384;28;20463;-85
2021/09/29 00:56:15;;;;;;;10.43;1.77;;;;;;;;;;5038630;28;20487;-85
2021/09/29 00:58:43;;;;;;;10.10;1.63;;;;;;;;;;5038805;28;20515;-85
2021/09/29 01:01:10;;;;;;;10.30;1.60;;;;;;;;;;5039621;28;20463;-85
2021/09/29 01:03:38;;;;;;;14.00;2.00;;;;;;;;;;5071115;28;20471;-85
2021/09/29 01:06:09;;;;;;;10.93;1.57;;;;;;;;;;5044925;28;20510;-85
2021/09/29 01:08:40;;;;;;;14.97;2.10;;;;;;;;;;5072234;28;20818;-85
2021/09/29 01:11:10;;;;;;;9.60;1.70;;;;;;;;;;5073545;28;20447;-85
2021/09/29 01:13:43;;;;;;;11.50;1.47;;;;;;;;;;5076497;28;20832;-85
2021/09/29 01:16:13;;;;;;;10.53;1.70;;;;;;;;;;5063089;28;20957;-85
2021/09/29 01:18:44;;;;;;;10.93;1.70;;;;;;;;;;5047740;28;20452;-85
2021/09/29 01:21:12;;;;;;;10.63;1.93;;;;;;;;;;5045736;28;20437;-85
2021/09/29 01:23:51;;;;;;;12.23;1.70;;;;;;;;;;5061163;28;20455;-85
2021/09/29 01:26:21;;;;;;;11.10;1.50;;;;;;;;;;5061776;28;20460;-85
2021/09/29 01:28:49;;;;;;;10.03;1.53;;;;;;;;;;5045674;28;20453;-85
2021/09/29 01:31:18;;;;;;;10.73;1.50;;;;;;;;;;5062393;28;20450;-86
2021/09/29 01:33:46;;;;;;;10.77;2.47;;;;;;;;;;5072538;28;20514;-84
2021/09/29 01:36:13;;;;;;;10.83;1.77;;;;;;;;;;5049918;28;20472;-85
2021/09/29 01:38:43;;;;;;;10.70;1.97;;;;;;;;;;5045742;28;20458;-85
2021/09/29 01:41:11;;;;;;;13.73;2.07;;;;;;;;;;5055404;28;20449;-85
2021/09/29 01:43:39;;;;;;;10.47;1.53;;;;;;;;;;5046703;28;20831;-85
2021/09/29 01:46:07;;;;;;;10.43;1.50;;;;;;;;;;5039147;28;20471;-85
2021/09/29 01:48:36;;;;;;;9.33;1.43;;;;;;;;;;5051139;28;20451;-85
2021/09/29 01:51:03;;;;;;;9.47;1.30;;;;;;;;;;5050027;28;20946;-84
2021/09/29 01:53:32;;;;;;;10.03;1.60;;;;;;;;;;5049852;28;20901;-85
2021/09/29 01:56:00;;;;;;;10.30;2.03;;;;;;;;;;5066388;28;20534;-84
2021/09/29 01:58:27;;;;;;;9.37;1.50;;;;;;;;;;5075315;28;20442;-84
2021/09/29 02:00:55;;;;;;;8.50;1.40;;;;;;;;;;5062530;28;20491;-85
2021/09/29 02:03:22;;;;;;;10.77;1.70;;;;;;;;;;5054662;28;20849;-84
2021/09/29 02:05:51;;;;;;;10.43;1.60;;;;;;;;;;5054920;28;20460;-84
2021/09/29 02:08:18;;;;;;;9.93;1.50;;;;;;;;;;5038808;28;20450;-85
2021/09/29 02:10:46;;;;;;;9.17;2.50;;;;;;;;;;5044160;28;20445;-85
2021/09/29 02:13:13;;;;;;;11.93;1.77;;;;;;;;;;5054436;28;20541;-85
2021/09/29 02:15:40;;;;;;;8.83;1.30;;;;;;;;;;5046866;28;20842;-85
2021/09/29 02:18:09;;;;;;;9.13;1.70;;;;;;;;;;5034692;28;20455;-86
2021/09/29 02:20:36;;;;;;;9.63;1.30;;;;;;;;;;5036337;28;20487;-84
2021/09/29 02:23:03;;;;;;;12.30;1.63;;;;;;;;;;5041404;28;20482;-83
2021/09/29 02:25:30;;;;;;;10.90;1.70;;;;;;;;;;5054637;28;20448;-84
2021/09/29 02:27:57;;;;;;;10.53;2.30;;;;;;;;;;5050764;28;20976;-85
2021/09/29 02:30:24;;;;;;;12.80;1.60;;;;;;;;;;5035428;28;20478;-84
2021/09/29 02:32:51;;;;;;;10.03;1.53;;;;;;;;;;5037827;28;20470;-84
2021/09/29 02:35:20;;;;;;;11.40;1.60;;;;;;;;;;5053204;28;20459;-84
2021/09/29 02:37:47;;;;;;;12.10;2.03;;;;;;;;;;5051910;28;20459;-85
2021/09/29 02:40:15;;;;;;;11.77;1.70;;;;;;;;;;5062509;28;20484;-84
2021/09/29 02:42:42;;;;;;;12.23;1.70;;;;;;;;;;5059593;28;20980;-85
2021/09/29 02:45:10;;;;;;;13.20;2.13;;;;;;;;;;5067091;28;20451;-85
2021/09/29 02:47:37;;;;;;;11.40;1.70;;;;;;;;;;5069708;28;20451;-84
2021/09/29 02:50:05;;;;;;;12.20;1.90;;;;;;;;;;5035496;28;20445;-84
2021/09/29 02:52:34;;;;;;;11.13;1.70;;;;;;;;;;5045217;28;20477;-85
2021/09/29 02:55:01;;;;;;;10.80;1.67;;;;;;;;;;5052115;28;20453;-84
2021/09/29 02:57:28;;;;;;;9.43;1.80;;;;;;;;;;5053184;28;20454;-84
2021/09/29 02:59:55;;;;;;;14.60;1.60;;;;;;;;;;5054634;28;20500;-85
2021/09/29 03:02:22;;;;;;;10.77;1.80;;;;;;;;;;5052209;28;20486;-85
2021/09/29 03:04:49;;;;;;;9.30;1.60;;;;;;;;;;5037983;28;20464;-84
2021/09/29 03:07:17;;;;;;;9.83;1.67;;;;;;;;;;5054794;28;20821;-84
2021/09/29 03:09:45;;;;;;;11.53;1.67;;;;;;;;;;5043070;28;20457;-85
2021/09/29 03:12:12;;;;;;;11.47;2.00;;;;;;;;;;5089694;22;20502;-82
2021/09/29 03:14:39;;;;;;;12.10;2.03;;;;;;;;;;5070399;28;20457;-81
2021/09/29 03:17:06;;;;;;;11.93;2.03;;;;;;;;;;5080490;28;20446;-81
2021/09/29 03:19:34;;;;;;;9.70;1.60;;;;;;;;;;5086352;28;20533;-81
2021/09/29 03:22:02;;;;;;;10.50;2.10;;;;;;;;;;5078118;28;20485;-82
2021/09/29 03:24:29;;;;;;;11.13;2.10;;;;;;;;;;5057058;28;20456;-82
2021/09/29 03:26:58;;;;;;;10.67;2.10;;;;;;;;;;5054004;28;20448;-81
2021/09/29 03:29:25;;;;;;;12.90;2.10;;;;;;;;;;5058682;28;20455;-82
2021/09/29 03:31:52;;;;;;;9.30;1.70;;;;;;;;;;5061957;28;20447;-81
2021/09/29 03:34:19;;;;;;;12.90;2.93;;;;;;;;;;5054287;28;20459;-82
2021/09/29 03:36:46;;;;;;;10.23;2.30;;;;;;;;;;5053581;28;20849;-82
2021/09/29 03:39:13;;;;;;;11.27;2.40;;;;;;;;;;5054356;28;20459;-83
2021/09/29 03:41:40;;;;;;;9.47;1.80;;;;;;;;;;5047487;28;20505;-82
2021/09/29 03:44:09;;;;;;;11.97;2.80;;;;;;;;;;5048637;28;20455;-83
2021/09/29 03:46:36;;;;;;;10.45;2.60;;;;;;;;;;5053394;28;20440;-83
2021/09/29 03:49:05;;;;;;;9.93;2.17;;;;;;;;;;5055080;28;20263;-84
2021/09/29 03:51:32;;;;;;;11.50;2.53;;;;;;;;;;5054896;28;20510;-83
2021/09/29 03:54:00;;;;;;;12.23;3.13;;;;;;;;;;5054638;28;20465;-83
2021/09/29 03:56:27;;;;;;;10.20;2.20;;;;;;;;;;5044376;28;20959;-84
2021/09/29 03:58:55;;;;;;;9.97;2.20;;;;;;;;;;5053557;28;20962;-83
2021/09/29 04:01:23;;;;;;;12.50;2.90;;;;;;;;;;5053537;28;21005;-83
2021/09/29 04:03:51;;;;;;;9.03;1.93;;;;;;;;;;5050588;28;20474;-83
2021/09/29 04:06:18;;;;;;;9.10;2.00;;;;;;;;;;5053444;28;20460;-83
2021/09/29 04:08:45;;;;;;;10.60;1.73;;;;;;;;;;5053335;28;20835;-83
2021/09/29 04:11:12;;;;;;;10.00;1.97;;;;;;;;;;5052592;28;20458;-82
2021/09/29 04:13:39;;;;;;;10.13;2.23;;;;;;;;;;5053027;28;20574;-83
2021/09/29 04:16:06;;;;;;;11.93;2.43;;;;;;;;;;5061927;28;20452;-83
2021/09/29 04:18:35;;;;;;;9.47;1.80;;;;;;;;;;5060314;28;20470;-82
2021/09/29 04:21:02;;;;;;;11.00;2.10;;;;;;;;;;5051776;28;20943;-83
2021/09/29 04:23:29;;;;;;;10.63;2.43;;;;;;;;;;5053038;28;20482;-83
2021/09/29 04:25:56;;;;;;;11.03;2.13;;;;;;;;;;5053444;28;20456;-82
2021/09/29 04:28:23;;;;;;;12.77;2.33;;;;;;;;;;5052494;28;20458;-83
2021/09/29 04:30:51;;;;;;;11.83;2.20;;;;;;;;;;5055633;28;20466;-81
2021/09/29 04:33:18;;;;;;;12.23;1.80;;;;;;;;;;5056924;28;20558;-83
2021/09/29 04:35:46;;;;;;;11.57;2.23;;;;;;;;;;5057826;28;20970;-83
2021/09/29 04:38:14;;;;;;;9.80;2.03;;;;;;;;;;5056193;28;20537;-83
2021/09/29 04:40:41;;;;;;;15.90;2.13;;;;;;;;;;5056246;28;20482;-84
2021/09/29 04:43:08;;;;;;;13.60;3.10;;;;;;;;;;5056025;28;20474;-84
2021/09/29 04:45:35;;;;;;;12.90;2.33;;;;;;;;;;5056358;28;20466;-82
2021/09/29 04:48:03;;;;;;;9.67;2.10;;;;;;;;;;5055788;28;20456;-83
2021/09/29 04:50:31;;;;;;;9.93;2.03;;;;;;;;;;5056645;28;20494;-82
2021/09/29 04:52:59;;;;;;;10.27;2.53;;;;;;;;;;5054534;28;20472;-84
2021/09/29 04:55:28;;;;;;;11.50;2.10;;;;;;;;;;5053649;28;20457;-85
2021/09/29 04:57:56;;;;;;;13.27;2.67;;;;;;;;;;5054456;28;20517;-86
2021/09/29 05:00:23;;;;;;;12.97;3.20;;;;;;;;;;5056056;28;20489;-86
2021/09/29 05:02:51;;;;;;;17.30;6.20;;;;;;;;;;5054674;28;20503;-85
2021/09/29 05:05:18;;;;;;;14.60;4.93;;;;;;;;;;5054482;28;20467;-84
2021/09/29 05:07:48;;;;;;;11.20;2.90;;;;;;;;;;5054827;28;20512;-85
2021/09/29 05:10:22;;;;;;;11.43;2.90;;;;;;;;;;5053167;28;20451;-85
2021/09/29 05:12:49;;;;;;;12.93;2.77;;;;;;;;;;5054129;28;20477;-85
2021/09/29 05:15:16;;;;;;;12.30;2.40;;;;;;;;;;5054355;28;20539;-84
2021/09/29 05:17:43;;;;;;;10.20;2.43;;;;;;;;;;5054513;28;20453;-84
2021/09/29 05:20:11;;;;;;;9.00;2.17;;;;;;;;;;5054219;28;20812;-84
2021/09/29 05:22:38;;;;;;;12.13;2.80;;;;;;;;;;5054186;28;20456;-84
2021/09/29 05:25:06;;;;;;;14.80;2.70;;;;;;;;;;5054806;28;20456;-84
2021/09/29 05:27:34;;;;;;;15.30;2.33;;;;;;;;;;5054132;28;20458;-84
2021/09/29 05:30:01;;;;;;;10.40;2.30;;;;;;;;;;5054946;28;20519;-83
2021/09/29 05:32:29;;;;;;;11.00;2.30;;;;;;;;;;5054994;28;20478;-84
2021/09/29 05:34:56;;;;;;;12.53;2.60;;;;;;;;;;5053918;28;20448;-84
2021/09/29 05:37:23;;;;;;;13.77;2.80;;;;;;;;;;5052995;28;20454;-84
2021/09/29 05:39:50;;;;;;;13.10;2.40;;;;;;;;;;5054071;28;20466;-84
2021/09/29 05:42:17;;;;;;;12.77;2.37;;;;;;;;;;5053893;28;20483;-85
2021/09/29 05:44:46;;;;;;;15.00;2.77;;;;;;;;;;5034947;28;20458;-83
2021/09/29 05:47:13;;;;;;;13.90;2.70;;;;;;;;;;5042232;28;20463;-86
2021/09/29 05:49:40;;;;;;;11.33;2.70;;;;;;;;;;5059537;28;20930;-85
2021/09/29 05:52:08;;;;;;;13.73;2.60;;;;;;;;;;5057944;28;20472;-85
2021/09/29 05:54:35;;;;;;;14.67;2.80;;;;;;;;;;5061064;28;20459;-85
2021/09/29 05:57:02;;;;;;;10.20;2.63;;;;;;;;;;5055149;28;20455;-85
2021/09/29 05:59:30;;;;;;;10.27;2.53;;;;;;;;;;5046834;28;20946;-84
2021/09/29 06:01:58;;;;;;;10.03;2.40;;;;;;;;;;5051958;28;20491;-84
2021/09/29 06:04:25;;;;;;;10.70;2.77;;;;;;;;;;5059970;28;20465;-84
2021/09/29 06:06:52;;;;;;;9.83;2.17;;;;;;;;;;5058908;28;20459;-83
2021/09/29 06:09:20;;;;;;;15.47;2.37;;;;;;;;;;5058515;28;20452;-84
2021/09/29 06:11:47;;;;;;;12.60;2.80;;;;;;;;;;5057816;28;20448;-83
2021/09/29 06:14:15;;;;;;;9.50;2.13;;;;;;;;;;5065376;28;20432;-84
2021/09/29 06:16:45;;;;;;;9.20;2.23;;;;;;;;;;5060699;28;20456;-84
2021/09/29 06:19:16;;;;;;;12.67;2.90;;;;;;;;;;5061609;28;20447;-85
2021/09/29 06:21:43;;;;;;;10.50;2.30;;;;;;;;;;5061323;28;20490;-85
2021/09/29 06:24:11;;;;;;;12.43;2.83;;;;;;;;;;5060683;28;20523;-85
2021/09/29 06:26:38;;;;;;;12.97;3.50;;;;;;;;;;5041498;28;20456;-85
2021/09/29 06:29:05;;;;;;;10.03;2.30;;;;;;;;;;5055231;28;20456;-85
2021/09/29 06:31:32;;;;;;;11.60;2.40;;;;;;;;;;5059218;28;20445;-84
2021/09/29 06:33:59;;;;;;;12.53;2.07;;;;;;;;;;5052381;28;21034;-84
2021/09/29 06:36:28;;;;;;;10.67;2.60;;;;;;;;;;5054323;28;20451;-85
2021/09/29 06:38:55;;;;;;;10.20;2.30;;;;;;;;;;5053484;28;20470;-83
2021/09/29 06:41:22;;;;;;;12.47;3.03;;;;;;;;;;5055757;28;20560;-84
2021/09/29 06:43:50;;;;;;;11.67;2.23;;;;;;;;;;5056788;28;21008;-84
2021/09/29 06:46:17;;;;;;;9.73;2.33;;;;;;;;;;5056344;28;20454;-84
2021/09/29 06:48:44;;;;;;;13.93;2.90;;;;;;;;;;5055824;28;20454;-85
2021/09/29 06:51:11;;;;;;;12.90;2.10;;;;;;;;;;5056730;28;20460;-85
2021/09/29 06:53:39;;;;;;;11.93;2.50;;;;;;;;;;5055692;28;20470;-84
2021/09/29 06:56:07;;;;;;;13.70;3.10;;;;;;;;;;5056290;28;20465;-85
2021/09/29 06:58:35;;;;;;;12.90;3.00;;;;;;;;;;5056269;28;20465;-85
2021/09/29 07:01:02;;;;;;;11.50;2.60;;;;;;;;;;5057120;28;20508;-85
2021/09/29 07:03:29;;;;;;;10.27;1.70;;;;;;;;;;5055707;28;20485;-84
2021/09/29 07:05:57;;;;;;;16.10;2.70;;;;;;;;;;5056480;28;20451;-84
2021/09/29 07:08:24;;;;;;;10.77;2.30;;;;;;;;;;5055019;28;20459;-83
2021/09/29 07:10:53;;;;;;;13.90;2.27;;;;;;;;;;5056165;28;20484;-85
2021/09/29 07:13:21;;;;;;;10.93;1.70;;;;;;;;;;5053971;28;20498;-83
2021/09/29 07:15:48;;;;;;;10.10;2.30;;;;;;;;;;5058710;28;20962;-83
2021/09/29 07:18:17;;;;;;;10.80;2.43;;;;;;;;;;5055608;28;20451;-82
2021/09/29 07:20:45;;;;;;;10.00;2.33;;;;;;;;;;5055079;28;20542;-82
2021/09/29 07:23:12;;;;;;;9.77;2.27;;;;;;;;;;5063490;28;20463;-79
2021/09/29 07:25:40;;;;;;;11.90;2.30;;;;;;;;;;5065766;28;20786;-79
2021/09/29 07:28:08;;;;;;;11.90;2.43;;;;;;;;;;5062858;28;20956;-78
2021/09/29 07:30:36;;;;;;;9.70;2.60;;;;;;;;;;5062721;28;20457;-80
2021/09/29 07:33:04;;;;;;;10.10;2.60;;;;;;;;;;5063837;28;20483;-79
2021/09/29 07:35:32;;;;;;;9.13;2.17;;;;;;;;;;5055529;28;20463;-79
2021/09/29 07:37:59;;;;;;;11.90;3.30;;;;;;;;;;5054801;28;20460;-79
2021/09/29 07:40:27;;;;;;;9.80;2.40;;;;;;;;;;5055971;28;20513;-80
2021/09/29 07:42:55;;;;;;;9.33;2.70;;;;;;;;;;5055426;28;20483;-80
2021/09/29 07:45:24;;;;;;;13.70;2.23;;;;;;;;;;5056052;28;20496;-81
2021/09/29 07:47:51;;;;;;;12.80;2.43;;;;;;;;;;5054336;28;20559;-79
2021/09/29 07:50:19;;;;;;;13.60;2.93;;;;;;;;;;5055270;28;20981;-80
2021/09/29 07:52:46;;;;;;;9.30;2.23;;;;;;;;;;5056665;28;20566;-78
2021/09/29 07:55:14;;;;;;;12.10;2.60;;;;;;;;;;5055920;28;20551;-80
2021/09/29 07:57:41;;;;;;;8.53;2.13;;;;;;;;;;5055687;28;20466;-80
2021/09/29 08:00:09;;;;;;;10.90;2.80;;;;;;;;;;5057006;28;20450;-80
2021/09/29 08:02:38;;;;;;;10.40;2.23;;;;;;;;;;5056233;28;20490;-80
2021/09/29 08:05:05;;;;;;;11.77;2.00;;;;;;;;;;5078148;28;20851;-81
2021/09/29 08:07:32;;;;;;;11.30;2.43;;;;;;;;;;5057008;28;20448;-79
2021/09/29 08:10:00;;;;;;;12.93;2.57;;;;;;;;;;5057933;28;20458;-79
2021/09/29 08:12:28;;;;;;;10.30;2.33;;;;;;;;;;5060553;28;20563;-80
2021/09/29 08:14:55;;;;;;;10.93;2.27;;;;;;;;;;5059305;28;20453;-81
2021/09/29 08:17:22;;;;;;;10.53;2.43;;;;;;;;;;5038558;28;20817;-81
2021/09/29 08:19:50;;;;;;;9.73;2.57;;;;;;;;;;5035749;28;20452;-81
2021/09/29 08:22:19;;;;;;;9.87;2.10;;;;;;;;;;5035609;28;21062;-80
2021/09/29 08:24:54;;;;;;;9.50;1.83;;;;;;;;;;5035771;28;20457;-80
2021/09/29 08:27:28;;;;;;;9.37;3.17;;;;;;;;;;5040370;28;20825;-81
2021/09/29 08:30:11;;;;;;;9.40;2.30;;;;;;;;;;5060955;28;20562;-80
2021/09/29 08:32:44;;;;;;;9.30;2.40;;;;;;;;;;5056041;28;20472;-80
2021/09/29 08:35:24;;;;;;;8.83;2.10;;;;;;;;;;5056837;28;20467;-80
2021/09/29 08:37:57;;;;;;;9.20;2.20;;;;;;;;;;5054441;28;20462;-82
2021/09/29 08:40:37;;;;;;;10.70;2.50;;;;;;;;;;5055344;28;20460;-81
2021/09/29 08:43:13;;;;;;;8.90;2.47;;;;;;;;;;5055611;28;20548;-81
2021/09/29 08:45:49;;;;;;;9.30;2.30;;;;;;;;;;5038590;28;20535;-82
2021/09/29 08:48:24;;;;;;;10.53;2.63;;;;;;;;;;5054219;28;20865;-81
2021/09/29 08:53:54;;;;;;;10.60;2.17;;;;;;;;;;5053867;28;20470;-81
2021/09/29 09:15:46;;;;;;;9.90;2.60;;;;;;;;;;5070148;28;20446;-84
2021/09/29 09:18:15;;;;;;;19.33;3.10;;;;;;;;;;5081085;28;20460;-85
2021/09/29 09:20:45;;;;;;;10.40;1.97;;;;;;;;;;5082954;28;20450;-87
2021/09/29 09:23:14;;;;;;;8.80;2.47;;;;;;;;;;5078506;28;20510;-86
2021/09/29 09:25:42;;;;;;;11.40;2.47;;;;;;;;;;5068832;28;20470;-86
2021/09/29 09:28:14;;;;;;;9.57;2.20;;;;;;;;;;5070626;28;20457;-83
2021/09/29 09:30:41;;;;;;;12.60;3.33;;;;;;;;;;5081506;28;20442;-86
2021/09/29 09:33:11;;;;;;;9.80;2.73;;;;;;;;;;5075108;28;20536;-83
2021/09/29 09:35:47;;;;;;;10.07;2.70;;;;;;;;;;5055941;28;20538;-82
2021/09/29 09:38:19;;;;;;;10.40;2.70;;;;;;;;;;5056701;28;20929;-85
2021/09/29 09:40:47;;;;;;;11.97;2.13;;;;;;;;;;5072632;28;20454;-85
2021/09/29 09:43:14;;;;;;;13.00;2.60;;;;;;;;;;5059603;28;20487;-86
2021/09/29 09:45:43;;;;;;;11.30;2.67;;;;;;;;;;5062306;28;20447;-86
2021/09/29 09:48:17;;;;;;;10.43;2.63;;;;;;;;;;5066907;28;20897;-86
2021/09/29 09:50:45;;;;;;;11.63;3.30;;;;;;;;;;5057912;28;20437;-86
2021/09/29 09:53:12;;;;;;;12.90;3.00;;;;;;;;;;5072198;28;20468;-86
2021/09/29 09:55:41;;;;;;;11.47;3.53;;;;;;;;;;5064125;28;20641;-87
2021/09/29 09:58:09;;;;;;;11.17;2.73;;;;;;;;;;5064211;28;20816;-86
2021/09/29 10:00:37;;;;;;;11.77;2.80;;;;;;;;;;5072963;28;20450;-86
2021/09/29 10:03:04;;;;;;;9.30;2.60;;;;;;;;;;5062235;28;20486;-86
2021/09/29 10:05:32;;;;;;;9.53;2.43;;;;;;;;;;5066750;28;20503;-85
2021/09/29 10:08:00;;;;;;;11.00;2.60;;;;;;;;;;5066630;28;20454;-87
2021/09/29 10:10:31;;;;;;;12.90;2.60;;;;;;;;;;5054936;28;20470;-87
2021/09/29 10:13:13;;;;;;;10.30;2.50;;;;;;;;;;5068723;28;20484;-86
2021/09/29 10:26:06;;;;;;;10.87;2.03;;;;;;;;;;5038786;28;20458;-85
2021/09/29 10:27:06;;;;;;;7.43;1.50;;;;;;;;;;5053204;28;20449;-85
2021/09/29 10:29:39;;;;;;;8.83;3.20;;;;;;;;;;5058071;28;20525;-86
2021/09/29 10:32:14;;;;;;;8.40;1.37;;;;;;;;;;5059422;28;20445;-86
2021/09/29 10:34:55;;;;;;;10.30;1.67;;;;;;;;;;5065121;28;20434;-87
2021/09/29 10:37:39;;;;;;;10.10;1.80;;;;;;;;;;5069358;28;20448;-85
2021/09/29 10:40:19;;;;;;;8.30;1.77;;;;;;;;;;5053285;28;20439;-86
2021/09/29 10:48:20;;;;;;;7.10;1.20;;;;;;;;;;5071041;28;20474;-85
2021/09/29 10:51:25;;;;;;;8.83;1.50;;;;;;;;;;5060252;28;20446;-83
2021/09/29 11:05:41;;;;;;;9.40;1.40;;;;;;;;;;5045220;28;20450;-84
2021/09/29 11:08:34;;;;;;;6.90;1.00;;;;;;;;;;5056921;28;20835;-84
2021/09/29 11:30:34;;;;;;;8.10;2.10;;;;;;;;;;5012505;28;20432;-84
2021/09/29 11:33:05;;;;;;;7.80;1.90;;;;;;;;;;5067146;28;20540;-85
2021/09/29 11:35:42;;;;;;;7.57;1.60;;;;;;;;;;5072734;28;20457;-85
2021/09/29 12:08:41;;;;;;;8.07;1.90;;;;;;;;;;5053502;28;20430;-85
2021/09/29 12:11:13;;;;;;;8.67;2.00;;;;;;;;;;5057642;28;20462;-88
2021/09/29 12:13:44;;;;;;;8.13;2.30;;;;;;;;;;5050807;28;21012;-86
2021/09/29 12:16:11;;;;;;;9.33;2.20;;;;;;;;;;5050990;28;20451;-84
2021/09/29 12:18:38;;;;;;;10.40;2.70;;;;;;;;;;5058044;28;20440;-89
2021/09/29 12:21:06;;;;;;;9.30;2.60;;;;;;;;;;5051695;28;20460;-85
2021/09/29 12:23:33;;;;;;;11.47;2.67;;;;;;;;;;5053069;28;20489;-87
2021/09/29 12:26:25;;;;;;;9.37;2.70;;;;;;;;;;5037346;28;21078;-86
2021/09/29 12:29:09;;;;;;;12.83;3.67;;;;;;;;;;5052376;28;20469;-84
2021/09/29 12:31:56;;;;;;;9.80;4.13;;;;;;;;;;5038095;28;20500;-84
2021/09/29 12:34:28;;;;;;;9.93;2.90;;;;;;;;;;5037927;28;20470;-86
2021/09/29 12:36:56;;;;;;;9.77;3.47;;;;;;;;;;5052982;28;20466;-86
2021/09/29 12:39:25;;;;;;;10.53;3.20;;;;;;;;;;5055421;28;20453;-85
2021/09/29 12:41:56;;;;;;;9.10;3.17;;;;;;;;;;5041273;28;20456;-86
2021/09/29 12:44:23;;;;;;;8.27;3.10;;;;;;;;;;5048950;28;21075;-86
2021/09/29 12:47:03;;;;;;;10.20;3.93;;;;;;;;;;5054230;28;20458;-86
2021/09/29 12:49:31;;;;;;;10.63;3.87;;;;;;;;;;5032316;28;20433;-87
2021/09/29 12:52:01;;;;;;;10.60;3.37;;;;;;;;;;5052029;28;20527;-87
2021/09/29 12:54:29;;;;;;;8.40;3.20;;;;;;;;;;5046925;28;20772;-89
2021/09/29 12:56:57;;;;;;;9.30;3.60;;;;;;;;;;5034064;28;20452;-87
2021/09/29 12:59:24;;;;;;;9.07;3.17;;;;;;;;;;5056823;28;20448;-87
2021/09/29 13:01:52;;;;;;;8.13;2.90;;;;;;;;;;5061174;28;20436;-89
2021/09/29 13:04:22;;;;;;;8.60;2.70;;;;;;;;;;5053911;28;20483;-88
2021/09/29 13:06:49;;;;;;;8.17;2.43;;;;;;;;;;5062613;28;20459;-88
2021/09/29 13:09:16;;;;;;;9.77;3.03;;;;;;;;;;5060001;28;20487;-88
2021/09/29 13:11:43;;;;;;;8.70;3.33;;;;;;;;;;5066047;28;20952;-89
2021/09/29 13:14:12;;;;;;;10.03;2.90;;;;;;;;;;5065127;28;20464;-88
2021/09/29 13:16:39;;;;;;;13.20;5.70;;;;;;;;;;5063222;28;20458;-87
2021/09/29 13:19:10;;;;;;;12.27;5.90;;;;;;;;;;5045126;28;20835;-88
2021/09/29 13:21:40;;;;;;;10.60;4.90;;;;;;;;;;5052356;28;20456;-87
2021/09/29 13:24:12;;;;;;;10.27;3.23;;;;;;;;;;5039356;28;20498;-86
2021/09/29 13:37:36;;;;;;;8.80;2.50;;;;;;;;;;5055120;28;20922;-85
2021/09/29 13:40:04;;;;;;;8.27;1.23;;;;;;;;;;5062804;28;20444;-83
2021/09/29 13:42:31;;;;;;;11.87;2.50;;;;;;;;;;5063537;28;20658;-82
2021/09/29 13:44:59;;;;;;;7.70;1.57;;;;;;;;;;5059591;28;20459;-84
2021/09/29 13:47:27;;;;;;;7.77;1.33;;;;;;;;;;5055797;28;20448;-83
2021/09/29 13:49:54;;;;;;;7.93;1.80;;;;;;;;;;5062284;28;20835;-83
2021/09/29 13:52:23;;;;;;;9.50;2.50;;;;;;;;;;5077724;28;20509;-82
2021/09/29 13:54:54;;;;;;;6.90;1.10;;;;;;;;;;5075844;28;20450;-84
2021/09/29 13:57:24;;;;;;;8.33;1.20;;;;;;;;;;5076147;28;20446;-82
2021/09/29 14:00:10;;;;;;;7.20;0.80;;;;;;;;;;5065100;28;20834;-84
2021/09/29 14:02:58;;;;;;;7.20;1.20;;;;;;;;;;5067415;28;20493;-84
2021/09/29 14:30:33;;;;;;;9.80;1.13;;;;;;;;;;5061007;28;20432;-85
2021/09/29 14:33:02;;;;;;;9.40;1.40;;;;;;;;;;5065617;28;20471;-81
2021/09/29 14:35:31;;;;;;;9.10;1.40;;;;;;;;;;5048585;28;20468;-81
2021/09/29 14:37:58;;;;;;;8.10;1.30;;;;;;;;;;5059742;28;20534;-84
2021/09/29 14:40:26;;;;;;;8.03;1.00;;;;;;;;;;5069148;28;20442;-85
2021/09/29 14:42:54;;;;;;;8.23;1.10;;;;;;;;;;5063066;28;20489;-84
2021/09/29 14:45:21;;;;;;;8.27;1.30;;;;;;;;;;5059561;28;20481;-83
2021/09/29 14:47:48;;;;;;;8.40;1.10;;;;;;;;;;5052760;28;20463;-84
2021/09/29 14:50:16;;;;;;;7.83;1.50;;;;;;;;;;5054600;28;20454;-85
2021/09/29 14:52:44;;;;;;;8.33;1.40;;;;;;;;;;5064767;28;20529;-87
2021/09/29 14:55:11;;;;;;;9.23;1.50;;;;;;;;;;5054217;28;20453;-87
2021/09/29 14:57:39;;;;;;;10.63;1.70;;;;;;;;;;5062271;28;20461;-86
2021/09/29 15:00:07;;;;;;;9.57;1.63;;;;;;;;;;5050902;28;20537;-87
2021/09/29 15:02:34;;;;;;;8.50;1.50;;;;;;;;;;5045453;28;20485;-87
2021/09/29 15:05:01;;;;;;;9.70;1.73;;;;;;;;;;5054543;28;20452;-86
2021/09/29 15:07:28;;;;;;;8.90;1.83;;;;;;;;;;5050826;28;20454;-86
2021/09/29 15:09:57;;;;;;;9.40;1.73;;;;;;;;;;5060552;28;20948;-85
2021/09/29 15:12:24;;;;;;;9.63;1.30;;;;;;;;;;5057224;28;20454;-85
2021/09/29 15:14:57;;;;;;;10.33;1.63;;;;;;;;;;5054033;28;20853;-84
2021/09/29 15:17:33;;;;;;;10.33;1.93;;;;;;;;;;5036130;28;20522;-86
2021/09/29 15:20:06;;;;;;;9.73;1.77;;;;;;;;;;5039816;28;20481;-85
2021/09/29 15:22:50;;;;;;;11.40;1.50;;;;;;;;;;5051165;28;20507;-86
2021/09/29 15:25:45;;;;;;;8.77;1.40;;;;;;;;;;5039565;28;20542;-86
2021/09/29 15:47:40;;;;;;;10.23;1.80;;;;;;;;;;5057659;28;20498;-86
2021/09/29 15:50:24;;;;;;;9.87;2.03;;;;;;;;;;5049424;28;20490;-86
2021/09/29 15:53:13;;;;;;;9.23;1.50;;;;;;;;;;5050776;28;20830;-86
2021/09/29 15:55:46;;;;;;;8.50;1.77;;;;;;;;;;5056077;28;20447;-84
2021/09/29 16:01:04;;;;;;;9.27;1.27;;;;;;;;;;5053280;28;20448;-84
2021/09/29 16:03:57;;;;;;;8.30;1.20;;;;;;;;;;5059442;28;20493;-84
2021/09/29 16:06:33;;;;;;;9.23;1.30;;;;;;;;;;5043554;28;20454;-84
2021/09/29 16:09:21;;;;;;;8.57;1.50;;;;;;;;;;5058095;28;20536;-82
2021/09/29 16:14:44;;;;;;;8.63;1.60;;;;;;;;;;5061540;28;20848;-85
2021/09/29 16:17:21;;;;;;;11.03;1.30;;;;;;;;;;5055528;28;20449;-84
2021/09/29 16:30:52;;;;;;;10.57;1.63;;;;;;;;;;5065544;28;20509;-84
2021/09/29 16:33:46;;;;;;;9.50;1.43;;;;;;;;;;5067669;28;20532;-83
2021/09/29 16:36:14;;;;;;;8.83;1.50;;;;;;;;;;5067311;28;20447;-84
2021/09/29 16:38:44;;;;;;;10.00;1.47;;;;;;;;;;5071171;28;20532;-84
2021/09/29 16:41:11;;;;;;;12.33;2.17;;;;;;;;;;5059724;28;20448;-83
2021/09/29 16:43:38;;;;;;;10.63;1.27;;;;;;;;;;5070075;28;20475;-84
2021/09/29 16:46:12;;;;;;;9.60;1.50;;;;;;;;;;5069173;28;20535;-84
2021/09/29 16:48:39;;;;;;;9.83;1.70;;;;;;;;;;5068344;28;20445;-85
2021/09/29 16:51:13;;;;;;;7.63;1.10;;;;;;;;;;5072915;28;20439;-83
2021/09/29 16:53:42;;;;;;;9.80;1.60;;;;;;;;;;5076146;28;20458;-83
2021/09/29 16:56:11;;;;;;;7.60;1.50;;;;;;;;;;5040795;28;20478;-83
2021/09/29 16:58:43;;;;;;;9.43;1.50;;;;;;;;;;5051603;28;20519;-82
2021/09/29 17:01:16;;;;;;;8.50;1.47;;;;;;;;;;5064292;28;20533;-83
2021/09/29 17:03:43;;;;;;;8.97;1.40;;;;;;;;;;5070765;28;20489;-84
2021/09/29 17:06:13;;;;;;;9.60;1.50;;;;;;;;;;5066703;28;20453;-84
2021/09/29 17:08:40;;;;;;;9.50;1.70;;;;;;;;;;5066840;28;20446;-84
2021/09/29 17:11:08;;;;;;;7.50;0.97;;;;;;;;;;5073174;28;20444;-85
2021/09/29 17:13:39;;;;;;;9.20;1.57;;;;;;;;;;5074376;28;20470;-82
2021/09/29 17:16:07;;;;;;;8.70;1.50;;;;;;;;;;5075494;28;20472;-83
2021/09/29 17:18:35;;;;;;;10.20;1.43;;;;;;;;;;5079109;28;20453;-83
2021/09/29 17:21:03;;;;;;;9.53;1.47;;;;;;;;;;5080231;28;20454;-83
2021/09/29 17:23:33;;;;;;;9.30;1.60;;;;;;;;;;5077692;28;21011;-84
2021/09/29 17:26:00;;;;;;;8.07;1.20;;;;;;;;;;5080856;28;20478;-83
2021/09/29 17:28:27;;;;;;;9.97;1.17;;;;;;;;;;5060418;28;20462;-84
2021/09/29 17:30:58;;;;;;;9.60;1.40;;;;;;;;;;5067262;28;20491;-82
2021/09/29 17:33:49;;;;;;;8.73;1.30;;;;;;;;;;5066642;28;20468;-84
2021/09/29 17:52:40;;;;;;;9.60;1.43;;;;;;;;;;5052009;28;20478;-86
2021/09/29 17:55:09;;;;;;;12.27;1.33;;;;;;;;;;5055799;28;20945;-87
2021/09/29 17:57:36;;;;;;;9.00;1.10;;;;;;;;;;5061467;28;20451;-85